Time;durP1;ratioP1;P1;durP2;ratioP2;P2;SDS_P1;SDS_P2;PMS_P1;PMS_P2;Temp;Humidity;BMP_temperature;BMP_pressure;BME280_temperature;BME280_humidity;BME280_pressure;Samples;Min_cycle;Max_cycle;Signal;HPM_P1;HPM_P2
2021/06/21 00:02:18;;;;;;;6.83;4.60;;;;;;;25.06;78.31;100145.22;5075780;28;20441;-72
2021/06/21 00:04:45;;;;;;;4.97;4.07;;;;;;;25.06;77.35;100125.81;5076000;28;20496;-72
2021/06/21 00:07:11;;;;;;;8.50;4.23;;;;;;;25.08;77.71;100120.66;5075727;28;20437;-72
2021/06/21 00:09:39;;;;;;;5.80;4.00;;;;;;;25.10;77.64;100107.16;5075878;28;20461;-73
2021/06/21 00:12:07;;;;;;;4.93;3.80;;;;;;;25.10;78.31;100094.13;5076126;28;20445;-73
2021/06/21 00:14:33;;;;;;;6.27;4.53;;;;;;;25.06;78.08;100092.56;5076113;28;20445;-72
2021/06/21 00:17:00;;;;;;;10.20;4.10;;;;;;;25.05;78.46;100088.97;5075916;28;20445;-73
2021/06/21 00:19:28;;;;;;;7.50;4.40;;;;;;;24.99;78.76;100081.53;5075084;28;21028;-69
2021/06/21 00:21:54;;;;;;;5.47;4.47;;;;;;;24.97;78.83;100068.09;5075767;28;20478;-73
2021/06/21 00:24:21;;;;;;;12.77;5.13;;;;;;;24.96;79.51;100074.81;5075292;28;20485;-72
2021/06/21 00:26:48;;;;;;;7.73;4.63;;;;;;;24.98;79.59;100071.66;5075270;28;20438;-73
2021/06/21 00:29:14;;;;;;;5.87;5.30;;;;;;;24.89;79.78;100072.13;5075590;28;20461;-73
2021/06/21 00:31:41;;;;;;;7.80;5.40;;;;;;;24.88;79.85;100071.34;5075364;28;20437;-73
2021/06/21 00:34:08;;;;;;;6.77;5.23;;;;;;;24.89;80.43;100072.91;5075199;28;20986;-72
2021/06/21 00:36:36;;;;;;;7.00;4.90;;;;;;;24.88;80.22;100073.31;5075229;28;20950;-71
2021/06/21 00:39:04;;;;;;;8.33;4.87;;;;;;;24.83;80.70;100080.09;5075389;28;20458;-73
2021/06/21 00:41:30;;;;;;;7.70;4.93;;;;;;;24.77;80.23;100078.97;5075385;28;20448;-72
2021/06/21 00:43:57;;;;;;;5.33;4.57;;;;;;;24.76;80.74;100068.31;5075255;28;20477;-70
2021/06/21 00:46:23;;;;;;;5.50;4.60;;;;;;;24.73;79.40;100075.44;5075307;28;20456;-72
2021/06/21 00:48:50;;;;;;;5.90;4.07;;;;;;;24.73;79.62;100066.34;5074960;28;20992;-72
2021/06/21 00:51:16;;;;;;;6.00;4.67;;;;;;;24.72;79.46;100065.56;5075239;28;20436;-72
2021/06/21 00:53:45;;;;;;;5.50;4.50;;;;;;;24.63;78.58;100068.03;5075188;28;20440;-71
2021/06/21 00:56:12;;;;;;;6.63;4.53;;;;;;;24.56;78.05;100065.31;5075064;28;20456;-72
2021/06/21 00:58:38;;;;;;;4.30;3.50;;;;;;;24.56;77.90;100059.75;5074728;28;20982;-71
2021/06/21 01:01:05;;;;;;;4.93;3.63;;;;;;;24.47;78.08;100067.75;5075033;28;20441;-72
2021/06/21 01:03:32;;;;;;;4.50;4.03;;;;;;;24.51;77.56;100068.53;5074868;28;20449;-71
2021/06/21 01:05:58;;;;;;;7.43;3.70;;;;;;;24.48;77.64;100067.38;5074874;28;20446;-71
2021/06/21 01:08:25;;;;;;;8.33;3.70;;;;;;;24.43;77.54;100067.78;5074802;28;20452;-72
2021/06/21 01:10:56;;;;;;;4.33;3.70;;;;;;;24.37;76.37;100064.66;5074884;28;20446;-72
2021/06/21 01:13:40;;;;;;;4.60;3.23;;;;;;;24.28;76.24;100056.00;5074852;28;20442;-71
2021/06/21 01:16:17;;;;;;;4.43;3.40;;;;;;;24.21;75.95;100058.03;5074723;28;20421;-71
2021/06/21 01:18:52;;;;;;;4.87;3.30;;;;;;;24.27;76.44;100057.22;5074290;28;20465;-72
2021/06/21 01:21:54;;;;;;;6.67;3.30;;;;;;;24.27;75.71;100065.53;5074762;28;20429;-72
2021/06/21 01:24:59;;;;;;;3.20;2.73;;;;;;;24.28;75.44;100055.22;5074738;28;20495;-71
2021/06/21 01:27:38;;;;;;;16.07;3.70;;;;;;;24.27;75.28;100048.91;5049957;28;20437;-72
2021/06/21 01:30:09;;;;;;;3.83;3.00;;;;;;;24.17;75.62;100044.22;5074350;28;20465;-72
2021/06/21 01:32:42;;;;;;;4.63;2.57;;;;;;;24.13;75.82;100054.56;5074210;28;20902;-72
2021/06/21 01:35:16;;;;;;;4.03;2.83;;;;;;;24.08;75.63;100049.44;5053546;28;20899;-72
2021/06/21 01:37:42;;;;;;;4.13;3.53;;;;;;;24.07;76.62;100045.88;5054563;28;20434;-72
2021/06/21 01:40:11;;;;;;;3.20;2.87;;;;;;;24.07;75.74;100048.66;5053964;28;20458;-72
2021/06/21 01:42:40;;;;;;;5.40;3.50;;;;;;;24.10;76.30;100044.28;5054003;28;20966;-72
2021/06/21 01:45:09;;;;;;;5.43;3.27;;;;;;;24.10;76.41;100038.75;5056520;28;20489;-72
2021/06/21 01:47:37;;;;;;;6.00;3.50;;;;;;;24.03;76.70;100030.50;5074343;28;20445;-71
2021/06/21 01:50:09;;;;;;;3.50;3.20;;;;;;;24.06;77.15;100038.00;5074109;28;20465;-71
2021/06/21 01:52:39;;;;;;;4.90;3.37;;;;;;;24.07;77.22;100036.78;5074131;28;20437;-72
2021/06/21 01:55:08;;;;;;;5.03;3.33;;;;;;;24.06;77.10;100047.06;5073955;28;20442;-70
2021/06/21 01:57:36;;;;;;;4.20;3.60;;;;;;;24.09;76.82;100045.50;5073930;28;20437;-71
2021/06/21 02:00:05;;;;;;;6.77;3.10;;;;;;;23.99;77.34;100044.34;5073750;28;20465;-72
2021/06/21 02:02:32;;;;;;;4.67;3.90;;;;;;;24.05;77.41;100053.03;5073948;28;20437;-73
2021/06/21 02:05:01;;;;;;;7.10;3.60;;;;;;;24.06;77.50;100062.91;5073758;28;20481;-72
2021/06/21 02:07:30;;;;;;;3.73;2.80;;;;;;;24.00;77.62;100067.31;5073469;28;20946;-71
2021/06/21 02:09:57;;;;;;;4.70;3.80;;;;;;;24.06;77.65;100077.53;5073560;28;20465;-72
2021/06/21 02:12:26;;;;;;;5.13;3.40;;;;;;;24.09;77.60;100076.72;5073672;28;20819;-71
2021/06/21 02:14:53;;;;;;;6.03;3.53;;;;;;;24.12;77.76;100080.63;5073615;28;20434;-73
2021/06/21 02:17:23;;;;;;;5.90;3.90;;;;;;;24.09;77.56;100081.47;5073128;28;20816;-69
2021/06/21 02:19:52;;;;;;;4.37;3.90;;;;;;;24.10;77.51;100077.50;5073215;28;20481;-69
2021/06/21 02:22:21;;;;;;;4.37;3.77;;;;;;;24.10;78.14;100096.88;5073634;28;20445;-68
2021/06/21 02:24:49;;;;;;;4.57;3.77;;;;;;;24.10;77.84;100105.97;5073142;28;20485;-71
2021/06/21 02:27:17;;;;;;;5.50;3.53;;;;;;;24.12;79.57;100122.94;5073578;28;20777;-73
2021/06/21 02:29:45;;;;;;;3.93;3.10;;;;;;;24.09;80.13;100122.97;5073332;28;20457;-71
2021/06/21 02:32:11;;;;;;;3.87;3.37;;;;;;;24.06;81.78;100121.78;5073480;28;20449;-72
2021/06/21 02:34:38;;;;;;;4.47;3.70;;;;;;;24.00;84.87;100125.41;5073366;28;20440;-73
2021/06/21 02:37:04;;;;;;;6.60;3.90;;;;;;;23.91;86.28;100123.88;5073369;28;20448;-71
2021/06/21 02:39:31;;;;;;;4.97;3.63;;;;;;;23.63;87.84;100093.53;5073295;28;20492;-73
2021/06/21 02:41:59;;;;;;;6.40;3.57;;;;;;;23.46;88.58;100105.44;5073471;28;20453;-74
2021/06/21 02:44:25;;;;;;;7.13;3.47;;;;;;;23.25;89.99;100114.63;5073302;28;20492;-72
2021/06/21 02:46:52;;;;;;;4.47;3.27;;;;;;;23.05;90.93;100327.00;5072956;28;20958;-73
2021/06/21 02:49:18;;;;;;;3.87;2.93;;;;;;;22.86;92.88;100311.53;5072928;28;20830;-72
2021/06/21 02:51:50;;;;;;;7.90;4.40;;;;;;;22.75;94.69;100313.47;5073239;28;20441;-71
2021/06/21 02:54:25;;;;;;;6.43;4.90;;;;;;;22.69;94.61;100315.81;5073356;28;20787;-70
2021/06/21 02:57:17;;;;;;;7.30;5.33;;;;;;;22.63;96.23;100292.53;5074172;28;20433;-71
2021/06/21 02:59:45;;;;;;;6.43;4.53;;;;;;;22.63;98.72;100281.50;5073305;28;20460;-71
2021/06/21 03:02:13;;;;;;;12.13;3.97;;;;;;;22.57;97.83;100258.97;5072998;28;20934;-72
2021/06/21 03:04:42;;;;;;;5.60;4.17;;;;;;;22.55;97.69;100252.28;5073116;28;20485;-72
2021/06/21 03:07:13;;;;;;;5.70;3.70;;;;;;;22.55;97.60;100244.00;5072915;28;20503;-71
2021/06/21 03:09:42;;;;;;;4.70;3.50;;;;;;;22.54;96.01;100245.19;5073101;28;20468;-72
2021/06/21 03:12:11;;;;;;;5.97;3.73;;;;;;;22.57;95.48;100225.06;5073293;28;20448;-71
2021/06/21 03:14:43;;;;;;;4.83;3.40;;;;;;;22.57;96.04;100230.59;5073036;28;20441;-72
2021/06/21 03:17:11;;;;;;;3.03;2.23;;;;;;;22.55;95.83;100214.44;5073256;28;20467;-71
2021/06/21 03:19:38;;;;;;;2.63;2.43;;;;;;;22.51;95.48;100215.59;5072212;28;20853;-73
2021/06/21 03:22:05;;;;;;;6.40;2.30;;;;;;;22.41;96.34;100201.38;5072863;28;20520;-71
2021/06/21 03:24:32;;;;;;;2.67;2.43;;;;;;;22.44;95.68;100193.50;5072876;28;20485;-73
2021/06/21 03:26:59;;;;;;;2.00;1.80;;;;;;;22.42;96.29;100194.69;5072913;28;20448;-72
2021/06/21 03:29:27;;;;;;;2.63;2.30;;;;;;;22.43;96.27;100187.19;5072768;28;20472;-70
2021/06/21 03:31:56;;;;;;;3.23;2.30;;;;;;;22.46;96.64;100194.69;5072886;28;20441;-73
2021/06/21 03:34:25;;;;;;;2.17;1.83;;;;;;;22.49;96.53;100177.34;5072870;28;20452;-71
2021/06/21 03:36:51;;;;;;;8.07;3.37;;;;;;;22.50;97.27;100178.13;5072760;28;20938;-73
2021/06/21 03:39:18;;;;;;;3.70;2.30;;;;;;;22.52;98.23;100150.91;5072373;28;20841;-71
2021/06/21 03:41:45;;;;;;;2.00;1.77;;;;;;;22.44;98.56;100139.06;5072538;28;20437;-71
2021/06/21 03:44:11;;;;;;;3.33;1.90;;;;;;;22.44;98.39;100130.00;5072867;28;20433;-71
2021/06/21 03:46:39;;;;;;;11.33;3.70;;;;;;;22.45;98.35;100123.31;5072818;28;20449;-71
2021/06/21 03:49:06;;;;;;;2.50;2.30;;;;;;;22.44;98.45;100118.97;5072698;28;20462;-71
2021/06/21 03:51:32;;;;;;;3.90;2.80;;;;;;;22.47;98.89;100104.38;5072678;28;20790;-72
2021/06/21 03:53:59;;;;;;;3.13;2.40;;;;;;;22.40;99.21;100094.13;5072829;28;20457;-74
2021/06/21 03:56:25;;;;;;;2.60;2.33;;;;;;;22.41;99.09;100085.47;5072778;28;20444;-71
2021/06/21 03:58:52;;;;;;;3.30;2.40;;;;;;;22.38;99.36;100069.69;5073714;28;20464;-73
2021/06/21 04:01:18;;;;;;;3.13;2.60;;;;;;;22.40;99.51;100059.06;5077579;28;20448;-72
2021/06/21 04:03:46;;;;;;;2.03;1.87;;;;;;;22.44;99.71;100056.28;5076231;28;20441;-72
2021/06/21 04:06:13;;;;;;;4.50;3.13;;;;;;;22.44;100.00;100042.47;5076131;28;20485;-72
2021/06/21 04:08:39;;;;;;;3.63;3.07;;;;;;;22.42;99.70;100036.56;5076176;28;20465;-72
2021/06/21 04:11:06;;;;;;;5.10;3.20;;;;;;;22.44;99.14;100030.66;5076000;28;20449;-72
2021/06/21 04:13:34;;;;;;;6.70;3.10;;;;;;;22.46;99.01;100028.28;5075928;28;20438;-72
2021/06/21 04:16:00;;;;;;;4.17;3.30;;;;;;;22.47;98.87;100014.09;5075671;28;20947;-73
2021/06/21 04:18:27;;;;;;;3.43;2.67;;;;;;;22.45;98.22;100001.88;5075636;28;20452;-72
2021/06/21 04:20:54;;;;;;;6.83;4.10;;;;;;;22.40;97.42;100000.28;5075671;28;20445;-73
2021/06/21 04:23:21;;;;;;;6.13;2.63;;;;;;;22.44;97.81;99992.78;5075592;28;20957;-72
2021/06/21 04:25:47;;;;;;;10.23;3.10;;;;;;;22.46;98.48;100000.69;5075329;28;21002;-70
2021/06/21 04:28:14;;;;;;;2.80;2.50;;;;;;;22.52;98.58;99993.56;5075849;28;20464;-73
2021/06/21 04:30:40;;;;;;;4.07;3.30;;;;;;;22.53;98.24;99976.59;5075655;28;20465;-72
2021/06/21 04:33:07;;;;;;;5.30;3.20;;;;;;;22.53;98.29;99973.84;5075720;28;20445;-72
2021/06/21 04:35:34;;;;;;;4.73;3.30;;;;;;;22.48;98.65;99987.25;5075399;28;20457;-72
2021/06/21 04:38:02;;;;;;;4.23;3.20;;;;;;;22.51;98.63;99997.53;5075536;28;20444;-73
2021/06/21 04:40:30;;;;;;;6.63;3.60;;;;;;;22.54;99.31;99991.22;5075461;28;20457;-72
2021/06/21 04:42:57;;;;;;;7.30;3.77;;;;;;;22.55;98.18;99990.03;5075503;28;20441;-73
2021/06/21 04:45:25;;;;;;;8.20;3.50;;;;;;;22.57;97.73;99985.66;5075480;28;20606;-73
2021/06/21 04:47:52;;;;;;;4.60;3.30;;;;;;;22.60;97.82;99984.09;5075444;28;20507;-73
2021/06/21 04:50:19;;;;;;;4.80;3.97;;;;;;;22.60;97.43;99973.84;5075123;28;20997;-74
2021/06/21 04:52:47;;;;;;;5.47;3.87;;;;;;;22.63;96.75;99958.47;5075110;28;20449;-73
2021/06/21 04:55:17;;;;;;;5.37;4.57;;;;;;;22.67;96.45;99959.25;5075156;28;20498;-74
2021/06/21 04:57:44;;;;;;;4.47;3.53;;;;;;;22.59;95.81;99938.34;5075182;28;20934;-73
2021/06/21 05:00:13;;;;;;;5.67;4.40;;;;;;;22.60;95.38;99931.66;5075151;28;20468;-74
2021/06/21 05:02:40;;;;;;;4.73;4.23;;;;;;;22.61;95.11;99935.97;5074857;28;20457;-70
2021/06/21 05:05:07;;;;;;;4.40;3.60;;;;;;;22.62;95.38;99935.59;5075068;28;20480;-72
2021/06/21 05:07:34;;;;;;;5.40;3.87;;;;;;;22.69;94.96;99932.00;5075085;28;20456;-72
2021/06/21 05:10:01;;;;;;;10.20;5.30;;;;;;;22.68;94.65;99924.91;5074764;28;20461;-71
2021/06/21 05:12:29;;;;;;;6.17;4.73;;;;;;;22.73;94.30;99927.25;5074842;28;20450;-71
2021/06/21 05:14:55;;;;;;;5.07;3.90;;;;;;;22.82;93.84;99940.66;5074648;28;20445;-70
2021/06/21 05:17:22;;;;;;;8.63;5.20;;;;;;;22.84;94.22;99952.88;5074677;28;20444;-68
2021/06/21 05:19:48;;;;;;;4.73;3.93;;;;;;;22.89;93.90;99955.25;5074032;28;20472;-72
2021/06/21 05:22:15;;;;;;;5.63;4.13;;;;;;;22.97;93.18;99969.03;5074114;28;20892;-69
2021/06/21 05:24:41;;;;;;;7.23;4.93;;;;;;;23.00;93.49;99969.00;5074485;28;20440;-70
2021/06/21 05:27:08;;;;;;;6.20;4.63;;;;;;;23.02;93.77;99976.91;5074526;28;20442;-70
2021/06/21 05:29:36;;;;;;;4.90;4.00;;;;;;;23.03;92.81;99984.03;5074181;28;20465;-69
2021/06/21 05:32:03;;;;;;;5.60;4.97;;;;;;;23.03;92.36;99990.31;5074365;28;20445;-69
2021/06/21 05:34:30;;;;;;;4.63;4.07;;;;;;;23.07;92.63;99995.84;5074349;28;20448;-70
2021/06/21 05:36:56;;;;;;;5.57;4.30;;;;;;;23.12;92.90;100006.47;5074012;28;20946;-70
2021/06/21 05:39:23;;;;;;;6.00;4.67;;;;;;;23.18;93.10;100018.69;5074290;28;20468;-69
2021/06/21 05:41:49;;;;;;;5.80;4.57;;;;;;;23.21;91.94;100017.09;5074032;28;20468;-70
2021/06/21 05:44:16;;;;;;;4.47;3.90;;;;;;;23.24;91.69;100010.75;5074079;28;20454;-70
2021/06/21 05:46:45;;;;;;;6.30;4.33;;;;;;;23.32;91.52;100020.59;5074022;28;20488;-70
2021/06/21 05:49:12;;;;;;;4.63;3.97;;;;;;;23.42;92.35;100017.81;5073983;28;20834;-69
2021/06/21 05:51:38;;;;;;;5.53;3.90;;;;;;;23.56;91.92;100027.22;5073642;28;20472;-70
2021/06/21 05:54:05;;;;;;;5.10;4.57;;;;;;;23.60;91.52;100028.00;5074063;28;20452;-70
2021/06/21 05:56:31;;;;;;;4.60;3.50;;;;;;;23.64;90.80;100029.56;5068336;28;20939;-70
2021/06/21 05:58:58;;;;;;;6.90;4.83;;;;;;;23.69;90.06;100033.09;5053560;28;20450;-71
2021/06/21 06:01:24;;;;;;;5.33;4.00;;;;;;;23.75;89.21;100021.19;5053899;28;20470;-70
2021/06/21 06:03:52;;;;;;;6.20;4.70;;;;;;;23.83;89.18;100038.53;5053794;28;20446;-70
2021/06/21 06:06:19;;;;;;;6.27;4.37;;;;;;;23.90;88.95;100042.03;5053745;28;20486;-70
2021/06/21 06:08:45;;;;;;;6.87;5.17;;;;;;;23.96;87.45;100044.41;5053380;28;20454;-70
2021/06/21 06:11:12;;;;;;;4.93;4.40;;;;;;;23.94;87.04;100053.09;5053597;28;20451;-70
2021/06/21 06:13:38;;;;;;;6.50;4.53;;;;;;;24.04;87.36;100068.84;5053547;28;20445;-69
2021/06/21 06:16:06;;;;;;;7.50;4.97;;;;;;;24.11;85.60;100066.00;5053582;28;20438;-71
2021/06/21 06:18:32;;;;;;;4.70;4.00;;;;;;;24.17;86.25;100061.63;5053451;28;20481;-70
2021/06/21 06:21:00;;;;;;;6.93;4.17;;;;;;;24.18;86.65;100048.59;5053238;28;20428;-70
2021/06/21 06:23:26;;;;;;;5.40;4.23;;;;;;;24.22;87.27;100054.88;5070386;28;20442;-70
2021/06/21 06:25:53;;;;;;;8.13;5.47;;;;;;;24.31;84.63;100071.81;5073447;28;20489;-70
2021/06/21 06:28:19;;;;;;;7.67;4.80;;;;;;;24.34;84.88;100054.38;5073252;28;20498;-70
2021/06/21 06:30:46;;;;;;;4.70;3.87;;;;;;;24.50;85.87;100053.88;5072950;28;20461;-72
2021/06/21 06:33:12;;;;;;;5.57;4.67;;;;;;;24.57;85.19;100050.25;5072962;28;20429;-73
2021/06/21 06:35:39;;;;;;;7.60;4.73;;;;;;;24.58;85.27;100046.31;5073316;28;20441;-72
2021/06/21 06:38:06;;;;;;;6.47;5.00;;;;;;;24.53;84.82;100038.44;5073306;28;20466;-72
2021/06/21 06:40:33;;;;;;;7.00;4.50;;;;;;;24.61;84.30;100056.56;5073364;28;20472;-74
2021/06/21 06:42:59;;;;;;;6.70;4.63;;;;;;;24.71;84.84;100063.22;5073280;28;20446;-73
2021/06/21 06:45:26;;;;;;;6.17;5.10;;;;;;;24.70;82.34;100072.69;5073150;28;20445;-71
2021/06/21 06:47:52;;;;;;;7.80;5.40;;;;;;;24.63;82.63;100065.25;5072791;28;20464;-71
2021/06/21 06:50:19;;;;;;;9.10;6.07;;;;;;;24.56;81.87;100068.06;5073156;28;20465;-72
2021/06/21 06:52:47;;;;;;;6.23;5.20;;;;;;;24.53;83.11;100068.91;5073091;28;20453;-73
2021/06/21 06:58:00;;;;;;;8.03;5.80;;;;;;;24.64;82.81;100050.19;5072959;28;20928;-71
2021/06/21 07:00:26;;;;;;;11.47;5.27;;;;;;;24.76;83.60;100040.59;5072957;28;20505;-71
2021/06/21 07:02:53;;;;;;;8.07;5.57;;;;;;;24.87;84.02;100047.59;5072688;28;20791;-71
2021/06/21 07:05:19;;;;;;;5.63;4.87;;;;;;;25.02;83.23;100051.00;5072928;28;20441;-72
2021/06/21 07:07:46;;;;;;;7.90;5.37;;;;;;;25.16;81.35;100052.88;5073037;28;20442;-72
2021/06/21 07:10:13;;;;;;;7.20;5.47;;;;;;;25.28;80.54;100054.28;5072595;28;20457;-71
2021/06/21 07:12:41;;;;;;;5.27;4.47;;;;;;;25.34;81.50;100056.22;5072958;28;20474;-71
2021/06/21 07:15:08;;;;;;;6.40;5.23;;;;;;;25.40;80.34;100051.75;5073043;28;20515;-71
2021/06/21 07:17:34;;;;;;;12.43;5.10;;;;;;;25.46;80.91;100037.47;5072662;28;20460;-72
2021/06/21 07:20:01;;;;;;;7.80;6.00;;;;;;;25.52;81.28;100028.25;5072397;28;21017;-73
2021/06/21 07:22:27;;;;;;;7.07;5.20;;;;;;;25.59;81.76;100030.16;5072822;28;20629;-71
2021/06/21 07:24:54;;;;;;;6.73;5.20;;;;;;;25.62;81.54;100030.09;5072831;28;20441;-72
2021/06/21 07:27:20;;;;;;;6.50;5.43;;;;;;;25.63;80.90;100048.31;5072801;28;20481;-71
2021/06/21 07:29:48;;;;;;;10.77;5.87;;;;;;;25.68;81.07;100060.94;5072360;28;20909;-72
2021/06/21 07:32:15;;;;;;;9.03;5.40;;;;;;;25.70;80.79;100063.28;5072156;28;20461;-72
2021/06/21 07:34:42;;;;;;;7.87;5.80;;;;;;;25.74;80.77;100075.13;5075305;28;20437;-69
2021/06/21 07:37:09;;;;;;;9.70;6.73;;;;;;;25.77;81.61;100079.88;5076518;28;20438;-69
2021/06/21 07:39:36;;;;;;;7.77;6.17;;;;;;;25.78;79.98;100076.69;5076382;28;20458;-72
2021/06/21 07:42:02;;;;;;;5.40;4.90;;;;;;;25.86;80.52;100080.94;5076275;28;20440;-71
2021/06/21 07:44:29;;;;;;;9.07;5.90;;;;;;;25.97;80.77;100077.22;5076446;28;20452;-72
2021/06/21 07:46:57;;;;;;;7.80;6.50;;;;;;;26.03;79.41;100075.53;5075807;28;20481;-72
2021/06/21 07:49:24;;;;;;;6.40;5.73;;;;;;;25.99;79.03;100074.81;5076322;28;20461;-72
2021/06/21 07:51:50;;;;;;;7.47;5.30;;;;;;;25.97;77.60;100071.66;5075985;28;20961;-72
2021/06/21 07:54:19;;;;;;;6.20;5.60;;;;;;;25.98;77.75;100067.66;5076235;28;20444;-71
2021/06/21 07:56:45;;;;;;;5.80;4.77;;;;;;;26.05;76.70;100073.13;5076132;28;20515;-71
2021/06/21 07:59:13;;;;;;;5.93;4.60;;;;;;;26.04;76.07;100079.91;5076146;28;20469;-71
2021/06/21 08:01:39;;;;;;;5.33;4.13;;;;;;;26.05;75.41;100073.13;5075726;28;20449;-71
2021/06/21 08:04:08;;;;;;;6.50;4.47;;;;;;;26.08;75.41;100072.31;5075633;28;20946;-71
2021/06/21 08:06:36;;;;;;;5.30;4.27;;;;;;;26.09;76.19;100071.88;5075755;28;20568;-69
2021/06/21 08:09:02;;;;;;;5.97;4.83;;;;;;;26.15;76.44;100077.72;5075914;28;20457;-75
2021/06/21 08:11:29;;;;;;;6.80;4.63;;;;;;;26.32;75.69;100073.91;5075688;28;20850;-71
2021/06/21 08:13:56;;;;;;;5.33;3.73;;;;;;;26.43;73.76;100076.50;5075996;28;20441;-72
2021/06/21 08:16:22;;;;;;;4.30;3.50;;;;;;;26.51;72.66;100077.19;5076026;28;20446;-71
2021/06/21 08:18:49;;;;;;;4.20;3.30;;;;;;;26.58;72.03;100079.84;5075816;28;20484;-72
2021/06/21 08:21:16;;;;;;;3.83;3.17;;;;;;;26.53;73.93;100081.13;5075931;28;20428;-72
2021/06/21 08:23:43;;;;;;;4.90;2.60;;;;;;;26.58;74.71;100077.09;5075813;28;20464;-71
2021/06/21 08:26:11;;;;;;;3.93;3.07;;;;;;;26.57;72.88;100081.06;5075144;28;20876;-72
2021/06/21 08:28:37;;;;;;;8.13;3.00;;;;;;;26.53;73.14;100072.00;5076029;28;20444;-69
2021/06/21 08:31:04;;;;;;;3.90;3.10;;;;;;;26.59;73.08;100078.66;5075151;28;20453;-72
2021/06/21 08:33:30;;;;;;;3.53;2.90;;;;;;;26.64;71.99;100072.59;5075198;28;20444;-70
2021/06/21 08:35:57;;;;;;;5.33;2.83;;;;;;;26.74;72.03;100084.72;5075893;28;20434;-72
2021/06/21 08:38:24;;;;;;;4.60;2.57;;;;;;;26.78;69.59;100083.47;5075227;28;20827;-72
2021/06/21 08:40:51;;;;;;;2.20;1.90;;;;;;;26.75;69.57;100076.00;5075537;28;20441;-72
2021/06/21 08:43:17;;;;;;;2.67;1.80;;;;;;;26.77;66.00;100076.34;5075489;28;20438;-72
2021/06/21 08:45:45;;;;;;;2.37;2.17;;;;;;;26.81;66.61;100082.63;5074790;28;20449;-72
2021/06/21 08:48:12;;;;;;;2.90;1.73;;;;;;;26.81;67.08;100104.84;5075441;28;20425;-73
2021/06/21 08:50:41;;;;;;;3.97;2.60;;;;;;;26.80;68.54;100100.50;5075325;28;20484;-72
2021/06/21 08:53:10;;;;;;;3.60;1.60;;;;;;;26.81;66.29;100099.28;5075338;28;20524;-72
2021/06/21 08:55:38;;;;;;;3.50;1.70;;;;;;;26.84;66.77;100092.91;5075362;28;20441;-72
2021/06/21 08:58:05;;;;;;;1.77;1.67;;;;;;;26.82;66.07;100088.97;5075183;28;20442;-72
2021/06/21 09:00:32;;;;;;;2.23;2.03;;;;;;;26.80;67.32;100091.41;5075129;28;20457;-72
2021/06/21 09:03:01;;;;;;;2.23;2.00;;;;;;;26.73;65.25;100108.97;5075041;28;20438;-71
2021/06/21 09:05:28;;;;;;;2.03;1.40;;;;;;;26.66;66.22;100098.00;5075081;28;20818;-72
2021/06/21 09:08:01;;;;;;;1.57;1.47;;;;;;;26.68;65.89;100095.56;5074865;28;20856;-72
2021/06/21 09:10:29;;;;;;;1.50;1.40;;;;;;;26.74;67.22;100096.66;5074878;28;20457;-72
2021/06/21 09:13:05;;;;;;;2.37;1.50;;;;;;;26.86;67.53;100107.16;5074804;28;20544;-72
2021/06/21 09:15:33;;;;;;;3.30;1.90;;;;;;;26.97;66.99;100106.19;5074895;28;20433;-72
2021/06/21 09:18:00;;;;;;;2.40;1.87;;;;;;;27.09;67.03;100108.34;5074467;28;20938;-72
2021/06/21 09:20:28;;;;;;;3.13;1.23;;;;;;;27.25;64.16;100116.78;5074288;28;20990;-72
2021/06/21 09:22:56;;;;;;;3.17;2.63;;;;;;;27.37;64.56;100116.16;5074308;28;20454;-71
2021/06/21 09:25:24;;;;;;;2.53;1.60;;;;;;;27.38;64.38;100117.72;5074723;28;20452;-73
2021/06/21 09:27:55;;;;;;;2.93;2.00;;;;;;;27.43;64.68;100113.66;5074618;28;20481;-74
2021/06/21 09:30:24;;;;;;;3.60;2.97;;;;;;;27.33;66.09;100115.44;5073806;28;20850;-73
2021/06/21 09:32:53;;;;;;;3.27;2.40;;;;;;;27.26;65.89;100115.56;5074415;28;20438;-72
2021/06/21 09:35:39;;;;;;;2.53;2.20;;;;;;;27.26;66.32;100123.91;5074325;28;20441;-72
2021/06/21 09:38:11;;;;;;;3.60;2.40;;;;;;;27.41;65.66;100116.88;5074371;28;20437;-72
2021/06/21 09:40:40;;;;;;;5.67;2.53;;;;;;;27.64;63.32;100115.25;5074313;28;20464;-72
2021/06/21 09:43:23;;;;;;;3.63;2.63;;;;;;;27.71;62.97;100106.72;5074332;28;20446;-73
2021/06/21 09:46:09;;;;;;;2.53;2.30;;;;;;;27.72;64.73;100119.47;5074252;28;20414;-72
2021/06/21 09:48:38;;;;;;;5.23;2.43;;;;;;;27.67;65.51;100119.94;5074042;28;20429;-72
2021/06/21 09:51:29;;;;;;;3.03;2.83;;;;;;;27.75;63.44;100115.03;5073906;28;20437;-73
2021/06/21 09:53:58;;;;;;;4.20;2.27;;;;;;;27.73;64.34;100115.47;5073977;28;20428;-72
2021/06/21 09:56:43;;;;;;;5.30;2.27;;;;;;;27.81;65.10;100111.31;5073209;28;20445;-72
2021/06/21 09:59:21;;;;;;;2.90;1.90;;;;;;;27.88;62.80;100111.16;5073946;28;20462;-73
2021/06/21 10:02:03;;;;;;;3.20;2.90;;;;;;;27.83;62.82;100111.66;5073774;28;20437;-72
2021/06/21 10:04:30;;;;;;;4.03;3.10;;;;;;;27.83;64.08;100120.00;5073851;28;20413;-72
2021/06/21 10:06:56;;;;;;;2.57;2.37;;;;;;;27.70;63.64;100118.28;5073614;28;20481;-73
2021/06/21 10:09:23;;;;;;;2.37;2.10;;;;;;;27.75;62.74;100115.81;5073548;28;20462;-73
2021/06/21 10:11:49;;;;;;;2.60;2.40;;;;;;;27.74;63.26;100117.03;5073506;28;20441;-72
2021/06/21 10:14:18;;;;;;;2.40;1.80;;;;;;;27.79;62.58;100122.09;5073322;28;20434;-72
2021/06/21 10:16:46;;;;;;;2.30;2.10;;;;;;;27.84;64.39;100126.38;5073544;28;20446;-73
2021/06/21 10:19:15;;;;;;;2.63;2.07;;;;;;;27.89;63.15;100125.84;5073419;28;20480;-73
2021/06/21 10:21:44;;;;;;;3.63;2.63;;;;;;;27.90;63.53;100116.31;5073637;28;20441;-73
2021/06/21 10:24:11;;;;;;;3.37;2.10;;;;;;;28.14;63.77;100122.53;5073360;28;20437;-72
2021/06/21 10:26:39;;;;;;;2.50;2.23;;;;;;;28.39;62.63;100133.91;5073447;28;20485;-72
2021/06/21 10:29:05;;;;;;;3.87;2.43;;;;;;;28.57;61.92;100130.69;5073446;28;20468;-72
2021/06/21 10:31:33;;;;;;;3.93;2.60;;;;;;;28.70;61.86;100139.13;5073464;28;20449;-72
2021/06/21 10:34:01;;;;;;;2.00;1.80;;;;;;;28.88;62.06;100139.47;5073166;28;20429;-73
2021/06/21 10:36:42;;;;;;;3.13;2.30;;;;;;;29.02;60.09;100138.34;5073371;28;20472;-73
2021/06/21 10:39:10;;;;;;;2.90;1.83;;;;;;;29.02;61.13;100129.19;5073490;28;20472;-73
2021/06/21 10:41:37;;;;;;;2.60;2.40;;;;;;;28.95;59.31;100129.34;5073274;28;20441;-72
2021/06/21 10:44:03;;;;;;;4.40;2.30;;;;;;;28.68;59.92;100122.06;5073203;28;20468;-73
2021/06/21 10:46:32;;;;;;;2.43;2.23;;;;;;;28.58;61.98;100131.47;5073213;28;20437;-72
2021/06/21 10:49:32;;;;;;;2.47;2.27;;;;;;;28.70;60.63;100130.00;5073067;28;20496;-72
2021/06/21 10:52:00;;;;;;;2.37;2.17;;;;;;;28.79;60.06;100128.16;5073071;28;20529;-72
2021/06/21 10:54:27;;;;;;;2.23;1.70;;;;;;;28.84;60.21;100124.06;5073127;28;20450;-73
2021/06/21 10:56:55;;;;;;;2.50;2.30;;;;;;;28.77;63.10;100113.06;5072708;28;20441;-74
2021/06/21 10:59:23;;;;;;;2.70;2.20;;;;;;;28.73;61.11;100109.59;5072643;28;20494;-73
2021/06/21 11:01:51;;;;;;;1.80;1.70;;;;;;;28.74;58.37;100117.53;5072968;28;20435;-73
2021/06/21 11:04:46;;;;;;;2.00;1.87;;;;;;;28.81;60.79;100119.34;5073048;28;20441;-73
2021/06/21 11:07:16;;;;;;;2.30;2.10;;;;;;;29.00;61.24;100114.88;5073104;28;20473;-73
2021/06/21 11:09:44;;;;;;;2.37;1.90;;;;;;;29.07;58.37;100115.50;5077181;28;20471;-72
2021/06/21 11:12:38;;;;;;;2.07;1.90;;;;;;;29.14;58.85;100103.38;5076984;28;20441;-73
2021/06/21 11:15:16;;;;;;;1.80;1.70;;;;;;;29.43;58.72;100108.94;5074648;28;20449;-72
2021/06/21 11:17:58;;;;;;;2.23;1.93;;;;;;;29.69;56.68;100109.03;5076991;28;20483;-72
2021/06/21 11:20:44;;;;;;;1.90;1.67;;;;;;;30.36;54.95;100095.75;5076612;28;20491;-73
2021/06/21 11:23:33;;;;;;;1.50;1.40;;;;;;;31.00;53.90;100098.44;5077005;28;20440;-73
2021/06/21 11:25:59;;;;;;;2.90;1.70;;;;;;;31.56;53.49;100099.63;5076523;28;20442;-72
2021/06/21 11:28:36;;;;;;;1.70;1.60;;;;;;;32.01;49.90;100117.94;5076745;28;20508;-71
2021/06/21 11:31:22;;;;;;;2.10;1.73;;;;;;;32.09;49.27;100110.81;5076455;28;20441;-73
2021/06/21 11:33:55;;;;;;;2.07;1.57;;;;;;;32.16;50.59;100113.34;5076802;28;20429;-73
2021/06/21 11:36:38;;;;;;;1.63;1.53;;;;;;;32.62;49.79;100105.88;5076722;28;20441;-73
2021/06/21 11:39:20;;;;;;;1.70;1.60;;;;;;;32.38;48.71;100097.25;5076611;28;20460;-75